Time;durP1;ratioP1;P1;durP2;ratioP2;P2;SDS_P1;SDS_P2;PMS_P1;PMS_P2;Temp;Humidity;BMP_temperature;BMP_pressure;BME280_temperature;BME280_humidity;BME280_pressure;Samples;Min_cycle;Max_cycle;Signal;HPM_P1;HPM_P2
2021/12/07 00:00:22;;;;;;;;;;;;;;;7.33;100.00;100309.91;5074180;28;20385;-51
2021/12/07 00:02:49;;;;;;;;;;;;;;;7.51;100.00;100316.66;5073612;28;19920;-50
2021/12/07 00:05:14;;;;;;;;;;;;;;;7.74;100.00;100321.78;5057294;28;19920;-46
2021/12/07 00:07:42;;;;;;;;;;;;;;;7.77;100.00;100337.38;5074564;28;20372;-46
2021/12/07 00:10:07;;;;;;;;;;;;;;;7.19;100.00;100338.19;5074719;28;19931;-48
2021/12/07 00:12:37;;;;;;;;;;;;;;;7.52;100.00;100336.94;5074694;28;20365;-47
2021/12/07 00:15:03;;;;;;;;;;;;;;;7.66;100.00;100336.03;5058159;28;20256;-46
2021/12/07 00:17:30;;;;;;;;;;;;;;;7.72;100.00;100329.16;5073143;28;20032;-46
2021/12/07 00:19:56;;;;;;;;;;;;;;;7.78;100.00;100339.03;5073096;28;19924;-48
2021/12/07 00:22:21;;;;;;;;;;;;;;;7.44;100.00;100344.00;5073990;28;20347;-48
2021/12/07 00:24:47;;;;;;;;;;;;;;;7.06;100.00;100348.63;5073274;28;19920;-51
2021/12/07 00:27:12;;;;;;;;;;;;;;;7.10;100.00;100347.25;5073116;28;19921;-48
2021/12/07 00:29:39;;;;;;;;;;;;;;;7.01;100.00;100347.34;5074159;28;19924;-49
2021/12/07 00:32:31;;;;;;;;;;;;;;;6.96;100.00;100333.78;5057025;28;19921;-49
2021/12/07 00:37:27;;;;;;;;;;;;;;;7.39;100.00;100332.28;5073462;28;20015;-48
2021/12/07 00:39:53;;;;;;;;;;;;;;;7.67;100.00;100342.19;5056585;28;19921;-48
2021/12/07 00:42:19;;;;;;;;;;;;;;;7.49;100.00;100338.13;5074621;28;19921;-49
2021/12/07 00:44:44;;;;;;;;;;;;;;;7.56;100.00;100339.00;5074158;28;19928;-48
2021/12/07 00:47:10;;;;;;;;;;;;;;;7.43;100.00;100347.66;5074122;28;19925;-49
2021/12/07 00:49:35;;;;;;;;;;;;;;;7.42;100.00;100345.19;5072998;28;19921;-49
2021/12/07 00:52:01;;;;;;;;;;;;;;;7.34;100.00;100338.16;5056671;28;20260;-51
2021/12/07 00:54:26;;;;;;;;;;;;;;;7.50;100.00;100345.09;5074521;28;19925;-50
2021/12/07 00:56:52;;;;;;;;;;;;;;;7.50;100.00;100346.94;5074756;28;19970;-50
2021/12/07 00:59:18;;;;;;;;;;;;;;;7.48;100.00;100355.09;5072726;28;19975;-50
2021/12/07 01:01:44;;;;;;;;;;;;;;;7.58;100.00;100357.47;5073854;28;20383;-50
2021/12/07 01:04:09;;;;;;;;;;;;;;;7.62;100.00;100355.25;5072662;28;19928;-51
2021/12/07 01:25:44;;;;;;;;;;;;;;;8.79;100.00;100397.72;5073010;28;19924;-49
2021/12/07 01:28:21;;;;;;;;;;;;;;;8.79;100.00;100397.72;5073626;28;20292;-49
2021/12/07 01:38:29;;;;;;;;;;;;;;;8.56;100.00;100404.94;5076425;28;20027;-51
2021/12/07 01:52:00;;;;;;;;;;;;;;;8.12;100.00;100436.06;5077999;28;19920;-50
2021/12/07 01:59:56;;;;;;;;;;;;;;;8.93;100.00;100452.78;5077012;28;20011;-48
2021/12/07 02:02:24;;;;;;;;;;;;;;;9.05;100.00;100447.75;5060099;28;19920;-48
2021/12/07 02:04:50;;;;;;;;;;;;;;;8.97;100.00;100451.38;5076433;28;19921;-51
2021/12/07 02:07:19;;;;;;;;;;;;;;;9.07;100.00;100458.22;5075628;28;19928;-49
2021/12/07 02:09:52;;;;;;;;;;;;;;;8.91;100.00;100449.50;5075305;28;19920;-52
2021/12/07 02:12:18;;;;;;;;;;;;;;;8.57;100.00;100438.56;5058968;28;20377;-48
2021/12/07 02:14:45;;;;;;;;;;;;;;;8.49;100.00;100445.84;5074719;28;19921;-49
2021/12/07 02:17:13;;;;;;;;;;;;;;;8.59;100.00;100449.03;5058701;28;19924;-48
2021/12/07 02:19:40;;;;;;;;;;;;;;;8.53;100.00;100445.28;5075491;28;19946;-51
2021/12/07 02:22:07;;;;;;;;;;;;;;;8.58;100.00;100445.53;5074989;28;19920;-52
2021/12/07 02:24:39;;;;;;;;;;;;;;;8.59;100.00;100457.03;5074392;28;19924;-50
2021/12/07 02:27:05;;;;;;;;;;;;;;;8.63;100.00;100468.13;5074543;28;19925;-50
2021/12/07 02:29:31;;;;;;;;;;;;;;;8.56;100.00;100476.09;5057955;28;20429;-51
2021/12/07 02:31:58;;;;;;;;;;;;;;;8.41;100.00;100478.75;5074492;28;20032;-48
2021/12/07 02:34:24;;;;;;;;;;;;;;;8.85;100.00;100479.59;5074636;28;19921;-52
2021/12/07 02:36:53;;;;;;;;;;;;;;;8.63;100.00;100479.63;5074336;28;19921;-49
2021/12/07 02:39:28;;;;;;;;;;;;;;;8.47;100.00;100481.50;5075038;28;19925;-49
2021/12/07 02:41:53;;;;;;;;;;;;;;;8.71;100.00;100478.69;5073866;28;19920;-49
2021/12/07 02:44:18;;;;;;;;;;;;;;;8.69;100.00;100478.84;5041640;28;19967;-53
2021/12/07 02:46:44;;;;;;;;;;;;;;;8.45;100.00;100483.53;5074883;28;19979;-50
2021/12/07 02:49:10;;;;;;;;;;;;;;;8.63;100.00;100494.78;5074018;28;19924;-53
2021/12/07 02:51:36;;;;;;;;;;;;;;;8.29;100.00;100499.75;5074081;28;20333;-53
2021/12/07 02:54:04;;;;;;;;;;;;;;;8.63;100.00;100492.97;5058273;28;19955;-54
2021/12/07 02:56:29;;;;;;;;;;;;;;;8.64;100.00;100507.94;5074275;28;19924;-49
2021/12/07 02:59:00;;;;;;;;;;;;;;;8.59;100.00;100502.34;5073708;28;19920;-50
2021/12/07 03:01:30;;;;;;;;;;;;;;;8.64;100.00;100507.94;5074824;28;20023;-53
2021/12/07 03:04:13;;;;;;;;;;;;;;;9.01;100.00;100510.50;5075230;28;19920;-50
2021/12/07 03:06:51;;;;;;;;;;;;;;;8.65;100.00;100522.06;5074394;28;19927;-50
2021/12/07 03:28:21;;;;;;;;;;;;;;;9.07;100.00;100535.59;5073859;28;19999;-52
2021/12/07 03:30:47;;;;;;;;;;;;;;;9.11;100.00;100548.34;5073452;28;19921;-49
2021/12/07 03:33:14;;;;;;;;;;;;;;;9.11;100.00;100548.34;5074240;28;19928;-50
2021/12/07 03:35:40;;;;;;;;;;;;;;;9.07;100.00;100548.94;5073931;28;19921;-51
2021/12/07 03:38:06;;;;;;;;;;;;;;;9.01;100.00;100562.03;5075352;28;20347;-49
2021/12/07 03:40:33;;;;;;;;;;;;;;;9.04;100.00;100566.97;5074924;28;19976;-53
2021/12/07 03:42:59;;;;;;;;;;;;;;;8.71;100.00;100566.66;5056386;28;20131;-50
2021/12/07 03:45:26;;;;;;;;;;;;;;;8.69;100.00;100576.69;5073720;28;19920;-52
2021/12/07 03:47:52;;;;;;;;;;;;;;;9.01;100.00;100575.34;5072958;28;19931;-51
2021/12/07 03:50:21;;;;;;;;;;;;;;;8.83;100.00;100588.31;5073217;28;19932;-52
2021/12/07 03:52:48;;;;;;;;;;;;;;;8.86;100.00;100583.41;5072944;28;19979;-55
2021/12/07 03:55:13;;;;;;;;;;;;;;;8.54;100.00;100584.72;5072400;28;20292;-51
2021/12/07 03:57:39;;;;;;;;;;;;;;;8.61;100.00;100589.09;5072786;28;19932;-52
2021/12/07 04:00:07;;;;;;;;;;;;;;;8.92;100.00;100584.50;5072827;28;19931;-52
2021/12/07 04:02:41;;;;;;;;;;;;;;;8.74;100.00;100571.59;5074016;28;19921;-52
2021/12/07 04:05:14;;;;;;;;;;;;;;;9.00;100.00;100563.03;5072729;28;19931;-50
2021/12/07 04:07:40;;;;;;;;;;;;;;;8.97;100.00;100579.41;5055522;28;19925;-50
2021/12/07 04:10:08;;;;;;;;;;;;;;;8.99;100.00;100589.88;5073076;28;19928;-52
2021/12/07 04:12:33;;;;;;;;;;;;;;;8.68;100.00;100591.03;5072769;28;19921;-53
2021/12/07 04:14:59;;;;;;;;;;;;;;;8.93;100.00;100594.13;5073732;28;19925;-48
2021/12/07 04:17:25;;;;;;;;;;;;;;;8.70;100.00;100600.47;5072438;28;19921;-51
2021/12/07 04:19:50;;;;;;;;;;;;;;;8.75;100.00;100599.91;5072717;28;19928;-52
2021/12/07 04:22:15;;;;;;;;;;;;;;;8.83;100.00;100609.63;5071992;28;19920;-49
2021/12/07 04:24:41;;;;;;;;;;;;;;;8.68;100.00;100607.03;5073363;28;19928;-50
2021/12/07 04:27:06;;;;;;;;;;;;;;;8.73;100.00;100613.41;5073454;28;20292;-53
2021/12/07 04:29:32;;;;;;;;;;;;;;;8.58;100.00;100605.47;5073515;28;19974;-49
2021/12/07 04:31:57;;;;;;;;;;;;;;;8.79;100.00;100601.19;5072021;28;19928;-52
2021/12/07 04:34:22;;;;;;;;;;;;;;;8.93;100.00;100612.81;5073298;28;19924;-51
2021/12/07 04:36:48;;;;;;;;;;;;;;;8.84;100.00;100609.44;5072991;28;20335;-51
2021/12/07 04:39:13;;;;;;;;;;;;;;;8.86;100.00;100612.72;5073074;28;19923;-51
2021/12/07 04:41:42;;;;;;;;;;;;;;;8.65;100.00;100610.88;5071900;28;19951;-49
2021/12/07 04:44:07;;;;;;;;;;;;;;;8.67;100.00;100613.38;5073478;28;19928;-48
2021/12/07 04:46:46;;;;;;;;;;;;;;;8.54;100.00;100622.84;5073180;28;20302;-48
2021/12/07 05:00:05;;;;;;;;;;;;;;;8.72;100.00;100643.78;5072890;28;19931;-51
2021/12/07 05:02:31;;;;;;;;;;;;;;;8.67;100.00;100624.03;5072796;28;19920;-49
2021/12/07 05:04:56;;;;;;;;;;;;;;;8.62;100.00;100637.91;5072853;28;19940;-49
2021/12/07 05:07:30;;;;;;;;;;;;;;;8.46;100.00;100638.94;5071828;28;20023;-50
2021/12/07 05:12:59;;;;;;;;;;;;;;;8.85;100.00;100655.59;5073145;28;19920;-49
2021/12/07 05:39:34;;;;;;;;;;;;;;;8.66;100.00;100670.38;5072990;28;19920;-53
2021/12/07 05:42:01;;;;;;;;;;;;;;;8.80;100.00;100682.81;5072403;28;19989;-53
2021/12/07 05:44:27;;;;;;;;;;;;;;;8.73;100.00;100685.41;5072563;28;19928;-51
2021/12/07 05:46:52;;;;;;;;;;;;;;;8.77;100.00;100693.88;5072571;28;19939;-52
2021/12/07 05:49:17;;;;;;;;;;;;;;;9.04;100.00;100678.16;5070929;28;19971;-48
2021/12/07 05:51:43;;;;;;;;;;;;;;;9.02;100.00;100697.03;5054596;28;19924;-51
2021/12/07 05:54:08;;;;;;;;;;;;;;;8.67;100.00;100698.69;5072260;28;19956;-51
2021/12/07 05:56:34;;;;;;;;;;;;;;;8.67;100.00;100701.34;5072267;28;19952;-48
2021/12/07 05:58:59;;;;;;;;;;;;;;;8.93;100.00;100710.69;5072195;28;19935;-49
2021/12/07 06:01:25;;;;;;;;;;;;;;;8.73;100.00;100712.06;5072676;28;20422;-50
2021/12/07 06:03:50;;;;;;;;;;;;;;;8.50;100.00;100722.88;5071114;28;20284;-50
2021/12/07 06:06:15;;;;;;;;;;;;;;;8.52;100.00;100728.00;5072712;28;19924;-53
2021/12/07 06:08:41;;;;;;;;;;;;;;;8.55;100.00;100735.66;5071263;28;19928;-49
2021/12/07 06:11:06;;;;;;;;;;;;;;;8.51;100.00;100732.53;5072244;28;19920;-50
2021/12/07 06:13:32;;;;;;;;;;;;;;;8.29;100.00;100729.72;5072468;28;19920;-48
2021/12/07 06:16:03;;;;;;;;;;;;;;;8.53;100.00;100730.50;5072176;28;19935;-52
2021/12/07 06:18:28;;;;;;;;;;;;;;;8.06;100.00;100726.31;5054596;28;20023;-51
2021/12/07 06:20:54;;;;;;;;;;;;;;;8.16;100.00;100719.69;5074862;28;19952;-50
2021/12/07 06:23:20;;;;;;;;;;;;;;;8.34;100.00;100721.19;5075803;28;20269;-52
2021/12/07 06:25:46;;;;;;;;;;;;;;;8.10;100.00;100715.09;5075810;28;19924;-50
2021/12/07 06:28:12;;;;;;;;;;;;;;;8.09;100.00;100712.63;5075695;28;20364;-49
2021/12/07 06:30:37;;;;;;;;;;;;;;;8.20;100.00;100714.84;5075689;28;19917;-52
2021/12/07 06:33:03;;;;;;;;;;;;;;;8.34;100.00;100707.88;5075529;28;19925;-49
2021/12/07 06:35:28;;;;;;;;;;;;;;;8.37;100.00;100709.31;5058071;28;19924;-52
2021/12/07 06:37:53;;;;;;;;;;;;;;;8.45;100.00;100706.56;5074433;28;19946;-51
2021/12/07 06:40:19;;;;;;;;;;;;;;;8.28;100.00;100708.56;5074159;28;20016;-48
2021/12/07 06:42:44;;;;;;;;;;;;;;;8.32;100.00;100709.88;5074359;28;19932;-50
2021/12/07 06:45:10;;;;;;;;;;;;;;;8.36;100.00;100705.84;5057762;28;20003;-50
2021/12/07 06:47:36;;;;;;;;;;;;;;;8.18;100.00;100720.34;5057652;28;20007;-52
2021/12/07 06:50:05;;;;;;;;;;;;;;;8.53;100.00;100724.31;5075360;28;20018;-51
2021/12/07 06:52:31;;;;;;;;;;;;;;;8.53;100.00;100735.81;5075421;28;19917;-49
2021/12/07 06:54:58;;;;;;;;;;;;;;;8.38;100.00;100729.63;5075361;28;19931;-49
2021/12/07 06:57:23;;;;;;;;;;;;;;;8.11;100.00;100727.41;5058130;28;19928;-47
2021/12/07 06:59:49;;;;;;;;;;;;;;;8.19;100.00;100726.50;5074616;28;19928;-50
2021/12/07 07:02:14;;;;;;;;;;;;;;;8.26;100.00;100737.25;5057305;28;19963;-50
2021/12/07 07:04:39;;;;;;;;;;;;;;;8.31;100.00;100743.69;5074996;28;19925;-52
2021/12/07 07:07:05;;;;;;;;;;;;;;;8.38;100.00;100742.94;5074909;28;20027;-51
2021/12/07 07:09:30;;;;;;;;;;;;;;;8.43;100.00;100754.72;5075151;28;19970;-49
2021/12/07 07:11:56;;;;;;;;;;;;;;;8.35;100.00;100752.16;5074716;28;19917;-52
2021/12/07 07:14:21;;;;;;;;;;;;;;;8.20;100.00;100746.81;5075203;28;19924;-49
2021/12/07 07:16:47;;;;;;;;;;;;;;;8.00;100.00;100746.50;5057245;28;20384;-53
2021/12/07 07:19:12;;;;;;;;;;;;;;;8.15;100.00;100742.03;5073868;28;19950;-51
2021/12/07 07:21:37;;;;;;;;;;;;;;;8.22;100.00;100741.28;5074747;28;19920;-52
2021/12/07 07:24:03;;;;;;;;;;;;;;;8.25;100.00;100749.75;5073671;28;19927;-52
2021/12/07 07:26:28;;;;;;;;;;;;;;;8.27;100.00;100752.22;5074616;28;20298;-51
2021/12/07 07:28:54;;;;;;;;;;;;;;;8.16;100.00;100746.34;5057112;28;20360;-51
2021/12/07 07:31:19;;;;;;;;;;;;;;;8.39;100.00;100756.09;5072936;28;19935;-50
2021/12/07 07:33:44;;;;;;;;;;;;;;;8.25;100.00;100752.41;5074533;28;19924;-52
2021/12/07 07:36:10;;;;;;;;;;;;;;;8.01;100.00;100761.47;5074202;28;19967;-48
2021/12/07 07:38:36;;;;;;;;;;;;;;;8.05;100.00;100760.09;5073236;28;19962;-49
2021/12/07 07:41:01;;;;;;;;;;;;;;;8.23;100.00;100757.09;5039936;28;19924;-48
2021/12/07 07:43:27;;;;;;;;;;;;;;;8.04;100.00;100767.25;5074863;28;20259;-48
2021/12/07 07:46:06;;;;;;;;;;;;;;;8.12;100.00;100771.69;5073086;28;19930;-53
2021/12/07 07:48:31;;;;;;;;;;;;;;;8.21;100.00;100775.13;5074994;28;20015;-52
2021/12/07 07:50:57;;;;;;;;;;;;;;;8.04;100.00;100771.75;5073036;28;20019;-47
2021/12/07 07:53:22;;;;;;;;;;;;;;;7.89;100.00;100775.22;5074575;28;20261;-49
2021/12/07 07:55:51;;;;;;;;;;;;;;;7.87;100.00;100757.75;5056933;28;20325;-48
2021/12/07 07:58:18;;;;;;;;;;;;;;;7.91;100.00;100761.72;5074287;28;19921;-49
2021/12/07 08:00:44;;;;;;;;;;;;;;;7.77;100.00;100758.00;5074216;28;19916;-52
2021/12/07 08:03:10;;;;;;;;;;;;;;;7.98;100.00;100756.50;5073306;28;19929;-49
2021/12/07 08:05:35;;;;;;;;;;;;;;;7.86;100.00;100746.28;5073778;28;19932;-49
2021/12/07 08:08:00;;;;;;;;;;;;;;;8.10;100.00;100746.22;5072550;28;19921;-48
2021/12/07 08:10:28;;;;;;;;;;;;;;;8.05;100.00;100744.09;5073882;28;19923;-53
2021/12/07 08:12:58;;;;;;;;;;;;;;;8.03;100.00;100746.13;5072777;28;19920;-50
2021/12/07 08:15:25;;;;;;;;;;;;;;;8.28;100.00;100748.53;5072712;28;19974;-52
2021/12/07 08:17:51;;;;;;;;;;;;;;;8.09;100.00;100766.72;5074405;28;19916;-50
2021/12/07 08:20:16;;;;;;;;;;;;;;;8.03;100.00;100767.44;5073426;28;19921;-48
2021/12/07 08:22:41;;;;;;;;;;;;;;;7.94;100.00;100763.19;5073499;28;19924;-50
2021/12/07 08:25:07;;;;;;;;;;;;;;;8.31;100.00;100767.66;5073477;28;19930;-50
2021/12/07 08:27:32;;;;;;;;;;;;;;;8.31;100.00;100756.19;5072149;28;20331;-50
2021/12/07 08:29:58;;;;;;;;;;;;;;;8.47;100.00;100761.34;5072819;28;19927;-56
2021/12/07 08:32:24;;;;;;;;;;;;;;;8.65;100.00;100770.84;5039058;28;20323;-53
2021/12/07 08:34:49;;;;;;;;;;;;;;;8.83;100.00;100772.31;5072122;28;19924;-53
2021/12/07 08:37:14;;;;;;;;;;;;;;;8.90;100.00;100762.53;5073517;28;19920;-52
2021/12/07 08:39:40;;;;;;;;;;;;;;;8.91;100.00;100764.19;5073495;28;20066;-50
2021/12/07 08:42:05;;;;;;;;;;;;;;;8.74;100.00;100759.06;5055266;28;19960;-54
2021/12/07 08:44:31;;;;;;;;;;;;;;;9.00;100.00;100757.75;5071909;28;19942;-49
2021/12/07 08:46:57;;;;;;;;;;;;;;;9.32;100.00;100760.97;5073513;28;19927;-53
2021/12/07 08:49:23;;;;;;;;;;;;;;;8.80;100.00;100767.34;5071900;28;20300;-50
2021/12/07 08:51:49;;;;;;;;;;;;;;;8.59;100.00;100771.59;5072414;28;20372;-50
2021/12/07 08:54:29;;;;;;;;;;;;;;;8.41;100.00;100777.22;5071704;28;20371;-50
2021/12/07 08:59:48;;;;;;;;;;;;;;;8.54;100.00;100779.31;5073281;28;19924;-48
2021/12/07 09:02:18;;;;;;;;;;;;;;;8.46;100.00;100789.00;5073086;28;19979;-55
2021/12/07 09:04:44;;;;;;;;;;;;;;;8.54;100.00;100784.66;5072740;28;20299;-52
2021/12/07 09:07:10;;;;;;;;;;;;;;;8.54;100.00;100773.97;5072063;28;19929;-49
2021/12/07 09:09:36;;;;;;;;;;;;;;;8.52;100.00;100768.81;5072584;28;20020;-52
2021/12/07 09:12:05;;;;;;;;;;;;;;;8.95;100.00;100765.47;5072682;28;19931;-49
2021/12/07 09:14:32;;;;;;;;;;;;;;;8.94;100.00;100758.47;5072796;28;19920;-50
2021/12/07 09:16:57;;;;;;;;;;;;;;;8.94;100.00;100763.81;5071046;28;19924;-51
2021/12/07 09:19:23;;;;;;;;;;;;;;;9.17;100.00;100766.38;5054680;28;19942;-51
2021/12/07 09:21:49;;;;;;;;;;;;;;;9.32;100.00;100771.66;5072546;28;19966;-54
2021/12/07 09:24:14;;;;;;;;;;;;;;;9.73;100.00;100775.53;5072434;28;19924;-47
2021/12/07 09:26:40;;;;;;;;;;;;;;;10.50;100.00;100772.28;5073032;28;19931;-53
2021/12/07 09:29:05;;;;;;;;;;;;;;;9.32;100.00;100771.66;5072860;28;20368;-50
2021/12/07 09:31:32;;;;;;;;;;;;;;;9.55;100.00;100778.66;5071593;28;19981;-48
2021/12/07 09:33:57;;;;;;;;;;;;;;;10.23;100.00;100784.59;5072744;28;19923;-53
2021/12/07 09:36:23;;;;;;;;;;;;;;;10.67;100.00;100777.28;5072856;28;19921;-53
2021/12/07 09:38:49;;;;;;;;;;;;;;;10.62;100.00;100791.25;5072621;28;19928;-53
2021/12/07 09:41:15;;;;;;;;;;;;;;;10.84;100.00;100783.97;5072574;28;19927;-53
2021/12/07 09:43:41;;;;;;;;;;;;;;;11.36;100.00;100790.75;5073134;28;19925;-50
2021/12/07 09:46:07;;;;;;;;;;;;;;;11.43;100.00;100791.59;5072092;28;19920;-52
2021/12/07 09:48:32;;;;;;;;;;;;;;;11.77;100.00;100792.47;5071258;28;19917;-49
2021/12/07 09:50:58;;;;;;;;;;;;;;;12.27;100.00;100792.09;5072319;28;19970;-53
2021/12/07 09:53:24;;;;;;;;;;;;;;;12.80;100.00;100778.78;5072014;28;19917;-49
2021/12/07 09:55:50;;;;;;;;;;;;;;;13.40;100.00;100783.88;5075928;28;20028;-49
2021/12/07 09:58:15;;;;;;;;;;;;;;;13.01;100.00;100783.00;5076297;28;20373;-47
2021/12/07 10:00:41;;;;;;;;;;;;;;;13.29;100.00;100780.00;5076655;28;19924;-53
2021/12/07 10:03:07;;;;;;;;;;;;;;;13.96;100.00;100780.63;5076946;28;19922;-50
2021/12/07 10:05:34;;;;;;;;;;;;;;;14.00;100.00;100771.06;5076856;28;20003;-52
2021/12/07 10:08:01;;;;;;;;;;;;;;;14.44;100.00;100777.28;5076378;28;19939;-53
2021/12/07 10:10:28;;;;;;;;;;;;;;;14.47;100.00;100782.22;5076210;28;20380;-52
2021/12/07 10:12:54;;;;;;;;;;;;;;;15.12;99.11;100790.00;5076523;28;20417;-52
2021/12/07 10:15:20;;;;;;;;;;;;;;;14.94;100.00;100777.41;5076146;28;19924;-50
2021/12/07 10:18:06;;;;;;;;;;;;;;;15.05;93.96;100774.75;5076120;28;19920;-51
2021/12/07 10:20:40;;;;;;;;;;;;;;;14.57;100.00;100780.91;5076108;28;19921;-52
2021/12/07 10:23:21;;;;;;;;;;;;;;;15.30;100.00;100773.81;5076069;28;19928;-50
2021/12/07 10:26:13;;;;;;;;;;;;;;;15.12;100.00;100781.94;5075690;28;19953;-48
2021/12/07 10:28:44;;;;;;;;;;;;;;;15.12;100.00;100771.16;5072428;28;19952;-49
2021/12/07 10:31:09;;;;;;;;;;;;;;;15.24;100.00;100776.59;5058441;28;19920;-51
2021/12/07 10:33:41;;;;;;;;;;;;;;;14.98;100.00;100767.81;5075845;28;19947;-51
2021/12/07 10:36:15;;;;;;;;;;;;;;;15.17;100.00;100769.44;5076023;28;20019;-53
2021/12/07 10:38:42;;;;;;;;;;;;;;;15.14;100.00;100767.19;5075549;28;20392;-52
2021/12/07 10:41:08;;;;;;;;;;;;;;;15.45;100.00;100765.31;5074621;28;20061;-53
2021/12/07 10:43:41;;;;;;;;;;;;;;;15.36;97.63;100765.84;5057748;28;19921;-53
2021/12/07 10:46:25;;;;;;;;;;;;;;;15.97;100.00;100766.59;5074029;28;19920;-49
2021/12/07 10:49:06;;;;;;;;;;;;;;;15.91;86.35;100752.19;5075320;28;19936;-49
2021/12/07 10:51:31;;;;;;;;;;;;;;;16.56;89.79;100737.94;5074343;28;19920;-49
2021/12/07 10:53:57;;;;;;;;;;;;;;;16.43;82.45;100731.75;5058709;28;19970;-51
2021/12/07 10:56:50;;;;;;;;;;;;;;;16.39;89.24;100725.19;5078240;28;19924;-51
2021/12/07 10:59:15;;;;;;;;;;;;;;;17.91;77.50;100712.25;5075911;28;19955;-49
2021/12/07 11:01:42;;;;;;;;;;;;;;;16.89;75.21;100722.94;5075174;28;19932;-49
2021/12/07 11:04:18;;;;;;;;;;;;;;;16.71;73.42;100707.72;5075226;28;20388;-49
2021/12/07 11:07:02;;;;;;;;;;;;;;;17.25;75.69;100698.50;5076493;28;19920;-54
2021/12/07 11:09:28;;;;;;;;;;;;;;;17.28;73.31;100692.59;5075783;28;20376;-52
2021/12/07 11:12:09;;;;;;;;;;;;;;;18.11;67.02;100689.31;5075209;28;19923;-52
2021/12/07 11:14:48;;;;;;;;;;;;;;;18.31;62.23;100693.34;5075801;28;19929;-50
2021/12/07 11:17:13;;;;;;;;;;;;;;;18.11;64.20;100689.31;5075390;28;19980;-48
2021/12/07 11:19:39;;;;;;;;;;;;;;;18.14;71.15;100685.28;5074059;28;20453;-49
2021/12/07 11:22:04;;;;;;;;;;;;;;;18.00;64.73;100690.22;5074856;28;19931;-50
2021/12/07 11:24:37;;;;;;;;;;;;;;;18.46;62.94;100690.84;5074730;28;20057;-52
2021/12/07 11:30:18;;;;;;;;;;;;;;;18.11;69.05;100683.91;5075420;28;19921;-52
2021/12/07 11:32:55;;;;;;;;;;;;;;;17.40;69.16;100689.84;5066089;28;19927;-51
2021/12/07 11:35:22;;;;;;;;;;;;;;;17.55;70.47;100692.81;5074531;28;19921;-55
2021/12/07 11:37:48;;;;;;;;;;;;;;;18.66;62.93;100691.34;5074555;28;20360;-53
2021/12/07 11:40:18;;;;;;;;;;;;;;;18.56;61.51;100684.72;5074476;28;19925;-54
2021/12/07 11:42:44;;;;;;;;;;;;;;;19.26;59.25;100692.25;5073365;28;19927;-53
2021/12/07 11:45:12;;;;;;;;;;;;;;;18.30;58.91;100687.13;5074523;28;20104;-51
2021/12/07 11:47:40;;;;;;;;;;;;;;;18.68;59.94;100684.59;5074625;28;19972;-52
2021/12/07 11:50:15;;;;;;;;;;;;;;;18.68;60.76;100681.06;5074497;28;19921;-50
2021/12/07 11:52:41;;;;;;;;;;;;;;;18.91;53.53;100680.78;5074675;28;20275;-49
2021/12/07 11:55:07;;;;;;;;;;;;;;;18.86;54.16;100677.19;5074061;28;20011;-50
2021/12/07 11:57:35;;;;;;;;;;;;;;;18.71;54.48;100667.84;5074646;28;19955;-53
2021/12/07 12:00:01;;;;;;;;;;;;;;;18.63;52.71;100669.13;5074533;28;19966;-52
2021/12/07 12:02:26;;;;;;;;;;;;;;;18.15;52.04;100665.28;5074125;28;20334;-52
2021/12/07 12:04:52;;;;;;;;;;;;;;;18.04;53.23;100653.50;5072706;28;20015;-50
2021/12/07 12:07:19;;;;;;;;;;;;;;;17.67;55.52;100643.19;5072925;28;19946;-48
2021/12/07 12:09:50;;;;;;;;;;;;;;;18.26;55.50;100639.97;5074177;28;19982;-53
2021/12/07 12:12:19;;;;;;;;;;;;;;;17.23;54.66;100642.00;5073637;28;20380;-53
2021/12/07 12:15:02;;;;;;;;;;;;;;;17.48;57.83;100628.06;5074055;28;20015;-54
2021/12/07 12:17:45;;;;;;;;;;;;;;;17.39;57.64;100617.91;5055359;28;19969;-54
2021/12/07 12:20:17;;;;;;;;;;;;;;;16.91;59.22;100623.59;5073680;28;19920;-52
2021/12/07 12:22:44;;;;;;;;;;;;;;;16.42;60.06;100621.31;5074123;28;19920;-51
2021/12/07 12:25:15;;;;;;;;;;;;;;;17.20;57.71;100601.94;5074038;28;19924;-51
2021/12/07 12:27:41;;;;;;;;;;;;;;;16.88;58.14;100602.47;5073476;28;19920;-52
2021/12/07 12:30:16;;;;;;;;;;;;;;;16.50;57.46;100585.88;5072309;28;19917;-52
2021/12/07 12:32:43;;;;;;;;;;;;;;;17.30;56.44;100585.91;5072678;28;20272;-49
2021/12/07 12:35:10;;;;;;;;;;;;;;;16.61;54.46;100586.88;5072993;28;20373;-51
2021/12/07 12:37:35;;;;;;;;;;;;;;;17.43;56.22;100581.22;5073581;28;19928;-52
2021/12/07 12:40:01;;;;;;;;;;;;;;;17.03;56.63;100574.94;5073815;28;20237;-51
2021/12/07 12:42:26;;;;;;;;;;;;;;;17.49;55.08;100569.41;5073135;28;20007;-49
2021/12/07 12:44:56;;;;;;;;;;;;;;;16.91;55.67;100570.38;5073539;28;20069;-53
2021/12/07 12:47:24;;;;;;;;;;;;;;;16.38;59.69;100566.19;5072983;28;19920;-52
2021/12/07 12:49:49;;;;;;;;;;;;;;;15.94;60.86;100566.69;5071827;28;19942;-53
2021/12/07 12:52:15;;;;;;;;;;;;;;;15.68;60.80;100552.63;5073858;28;20007;-53
2021/12/07 12:54:42;;;;;;;;;;;;;;;16.21;62.89;100550.78;5073548;28;19931;-49
2021/12/07 12:57:09;;;;;;;;;;;;;;;15.93;64.56;100544.28;5072077;28;19916;-49
2021/12/07 12:59:38;;;;;;;;;;;;;;;15.16;67.95;100538.84;5073154;28;20019;-51
2021/12/07 13:02:04;;;;;;;;;;;;;;;14.75;71.49;100541.34;5072995;28;19958;-55
2021/12/07 13:04:30;;;;;;;;;;;;;;;14.23;73.12;100524.88;5072178;28;19964;-52
2021/12/07 13:09:33;;;;;;;;;;;;;;;14.08;75.01;100512.69;5073859;28;19920;-49
2021/12/07 13:12:04;;;;;;;;;;;;;;;13.89;79.58;100504.63;5073353;28;20350;-51
2021/12/07 13:14:36;;;;;;;;;;;;;;;14.32;76.70;100500.13;5072854;28;19924;-50
2021/12/07 13:17:13;;;;;;;;;;;;;;;14.16;76.82;100492.69;5073098;28;20030;-51
2021/12/07 13:19:57;;;;;;;;;;;;;;;13.20;86.59;100488.63;5055476;28;19920;-54
2021/12/07 13:22:22;;;;;;;;;;;;;;;13.62;82.99;100475.41;5073220;28;20272;-52
2021/12/07 13:24:51;;;;;;;;;;;;;;;13.21;84.99;100468.78;5072705;28;19921;-51
2021/12/07 13:27:16;;;;;;;;;;;;;;;13.33;86.15;100461.59;5071432;28;19929;-52
2021/12/07 13:29:46;;;;;;;;;;;;;;;13.36;84.57;100438.03;5075559;28;19935;-54
2021/12/07 13:32:12;;;;;;;;;;;;;;;13.32;85.59;100422.38;5077017;28;19928;-50
2021/12/07 13:34:39;;;;;;;;;;;;;;;12.95;89.72;100422.38;5077694;28;19932;-52
2021/12/07 13:37:06;;;;;;;;;;;;;;;12.80;92.93;100427.25;5076864;28;20396;-51
2021/12/07 13:39:44;;;;;;;;;;;;;;;13.34;89.04;100422.97;5077127;28;19920;-49
2021/12/07 13:42:12;;;;;;;;;;;;;;;12.96;90.86;100424.00;5075940;28;19930;-52
2021/12/07 13:44:56;;;;;;;;;;;;;;;12.44;98.74;100411.63;5077538;28;19927;-53
2021/12/07 13:47:28;;;;;;;;;;;;;;;12.47;98.28;100413.91;5058802;28;20427;-52
2021/12/07 13:50:03;;;;;;;;;;;;;;;12.67;98.46;100412.09;5075622;28;19952;-49
2021/12/07 13:52:30;;;;;;;;;;;;;;;12.76;96.68;100419.63;5075678;28;19920;-53
2021/12/07 13:54:57;;;;;;;;;;;;;;;12.65;100.00;100412.28;5076968;28;20264;-49
2021/12/07 13:57:25;;;;;;;;;;;;;;;12.62;100.00;100407.38;5077252;28;20396;-50
2021/12/07 14:00:06;;;;;;;;;;;;;;;12.62;100.00;100399.31;5075314;28;19924;-54
2021/12/07 14:02:38;;;;;;;;;;;;;;;12.36;100.00;100393.13;5076450;28;19920;-52
2021/12/07 14:05:23;;;;;;;;;;;;;;;12.26;100.00;100398.19;5077073;28;19925;-53
2021/12/07 14:07:49;;;;;;;;;;;;;;;12.12;100.00;100387.53;5076013;28;19920;-50
2021/12/07 14:10:24;;;;;;;;;;;;;;;12.17;100.00;100385.03;5077144;28;20011;-51
2021/12/07 14:12:53;;;;;;;;;;;;;;;12.01;100.00;100374.84;5076042;28;19976;-51
2021/12/07 14:15:29;;;;;;;;;;;;;;;11.79;100.00;100377.84;5075772;28;19959;-51
2021/12/07 14:17:56;;;;;;;;;;;;;;;11.92;100.00;100368.88;5076283;28;19959;-50
2021/12/07 14:20:41;;;;;;;;;;;;;;;11.77;100.00;100353.13;5058605;28;20022;-53
2021/12/07 14:23:13;;;;;;;;;;;;;;;11.64;100.00;100358.53;5058302;28;19927;-48
2021/12/07 14:26:05;;;;;;;;;;;;;;;11.38;100.00;100339.69;5074934;28;19921;-51
2021/12/07 14:28:38;;;;;;;;;;;;;;;11.38;100.00;100354.94;5055902;28;19960;-51
2021/12/07 14:31:06;;;;;;;;;;;;;;;11.55;100.00;100340.03;5076017;28;19920;-53